Time;durP1;ratioP1;P1;durP2;ratioP2;P2;SDS_P1;SDS_P2;PMS_P1;PMS_P2;Temp;Humidity;BMP_temperature;BMP_pressure;BME280_temperature;BME280_humidity;BME280_pressure;Samples;Min_cycle;Max_cycle;Signal;HPM_P1;HPM_P2
2022/09/12 00:00:12;0.00;0.00;0.62;0.00;0.00;0.62;;;;;20.30;1.00;;;;;;2284921;60;1400;-87
2022/09/12 00:02:39;48640.00;0.16;84.83;0.00;0.00;0.62;;;;;20.40;1.00;;;;;;2284938;60;1915;-86
2022/09/12 00:05:06;0.00;0.00;0.62;0.00;0.00;0.62;;;;;20.50;1.00;;;;;;2284909;60;1022;-87
2022/09/12 00:07:34;110218.00;0.37;191.21;0.00;0.00;0.62;;;;;20.50;1.00;;;;;;2284966;60;1086;-87
2022/09/12 00:10:01;0.00;0.00;0.62;0.00;0.00;0.62;;;;;20.50;1.00;;;;;;2284952;60;1371;-87
2022/09/12 00:12:28;0.00;0.00;0.62;0.00;0.00;0.62;;;;;20.60;1.00;;;;;;2284924;60;1055;-85
2022/09/12 00:14:54;0.00;0.00;0.62;0.00;0.00;0.62;;;;;20.60;1.00;;;;;;2284884;60;1044;-86
2022/09/12 00:17:22;29542.00;0.10;51.79;0.00;0.00;0.62;;;;;20.30;1.00;;;;;;2284939;60;1115;-85
2022/09/12 00:19:49;0.00;0.00;0.62;0.00;0.00;0.62;;;;;20.10;1.00;;;;;;2284888;60;1371;-86
2022/09/12 00:22:16;25081.00;0.08;44.07;0.00;0.00;0.62;;;;;20.20;1.00;;;;;;2284868;60;1105;-86
2022/09/12 00:24:43;0.00;0.00;0.62;0.00;0.00;0.62;;;;;20.20;1.00;;;;;;2284828;60;1978;-86
2022/09/12 00:27:10;0.00;0.00;0.62;0.00;0.00;0.62;;;;;20.20;1.00;;;;;;2284861;60;1005;-86
2022/09/12 00:29:37;139329.00;0.46;241.41;16621.00;0.06;29.42;;;;;20.10;1.00;;;;;;2284826;60;1068;-86
2022/09/12 00:32:04;0.00;0.00;0.62;0.00;0.00;0.62;;;;;20.10;1.00;;;;;;2284885;60;1094;-86
2022/09/12 00:34:32;0.00;0.00;0.62;0.00;0.00;0.62;;;;;20.00;1.00;;;;;;2284918;60;1106;-87
2022/09/12 00:36:59;93381.00;0.31;162.15;0.00;0.00;0.62;;;;;20.20;1.00;;;;;;2284584;60;1316;-85
2022/09/12 00:39:26;141980.00;0.47;245.98;0.00;0.00;0.62;;;;;20.30;1.00;;;;;;2284877;60;922;-86
2022/09/12 00:41:52;12439.00;0.04;22.17;0.00;0.00;0.62;;;;;20.40;1.00;;;;;;2284826;60;1285;-85
2022/09/12 00:44:48;21039.00;0.07;37.07;0.00;0.00;0.62;;;;;20.10;1.00;;;;;;2284792;60;1988;-86
2022/09/12 00:47:26;0.00;0.00;0.62;0.00;0.00;0.62;;;;;20.00;1.00;;;;;;2284777;60;1025;-86
2022/09/12 00:50:01;0.00;0.00;0.62;0.00;0.00;0.62;;;;;20.00;1.00;;;;;;2284821;60;1464;-86
2022/09/12 00:52:33;0.00;0.00;0.62;0.00;0.00;0.62;;;;;20.10;1.00;;;;;;2284819;60;1062;-87
2022/09/12 00:55:05;0.00;0.00;0.62;0.00;0.00;0.62;;;;;20.20;1.00;;;;;;2284808;60;1175;-86
2022/09/12 00:57:35;33552.00;0.11;58.73;0.00;0.00;0.62;;;;;20.10;1.00;;;;;;2284775;60;1030;-86
2022/09/12 01:00:11;0.00;0.00;0.62;0.00;0.00;0.62;;;;;20.00;1.00;;;;;;2284680;60;1384;-86
2022/09/12 01:02:38;0.00;0.00;0.62;0.00;0.00;0.62;;;;;19.70;1.00;;;;;;2284737;60;972;-86
2022/09/12 01:05:09;33224.00;0.11;58.16;0.00;0.00;0.62;;;;;19.70;1.00;;;;;;2284613;60;2018;-85
2022/09/12 01:07:37;123164.00;0.41;213.54;7723.00;0.03;14.00;;;;;19.40;1.00;;;;;;2284776;60;1104;-85
2022/09/12 01:10:04;0.00;0.00;0.62;0.00;0.00;0.62;;;;;19.50;1.00;;;;;;2284737;60;1287;-85
2022/09/12 01:12:32;0.00;0.00;0.62;0.00;0.00;0.62;;;;;19.60;1.00;;;;;;2284779;60;1066;-85
2022/09/12 01:14:59;0.00;0.00;0.62;0.00;0.00;0.62;;;;;19.70;1.00;;;;;;2284704;60;1031;-85
2022/09/12 01:17:35;0.00;0.00;0.62;0.00;0.00;0.62;;;;;19.90;1.00;;;;;;2284759;60;1166;-85
2022/09/12 01:20:54;0.00;0.00;0.62;0.00;0.00;0.62;;;;;19.70;1.00;;;;;;2284669;60;1604;-83
2022/09/12 01:23:53;882441.00;2.94;1525.30;116475.00;0.39;202.00;;;;;19.80;1.00;;;;;;2267822;61;2010;-84
2022/09/12 01:26:48;0.00;0.00;0.62;0.00;0.00;0.62;;;;;19.70;1.00;;;;;;2284530;60;1369;-85
2022/09/12 01:29:40;222035.00;0.74;383.85;0.00;0.00;0.62;;;;;19.30;1.00;;;;;;2283967;60;1736;-86
2022/09/12 01:32:16;96074.00;0.32;166.79;0.00;0.00;0.62;;;;;19.00;1.00;;;;;;2284681;60;1070;-85
2022/09/12 01:34:49;190168.00;0.63;329.00;76585.00;0.26;133.14;;;;;18.90;1.00;;;;;;2284674;60;1015;-85
2022/09/12 01:37:25;221255.00;0.74;382.50;68535.00;0.23;119.23;;;;;18.50;1.00;;;;;;2284702;60;1078;-84
2022/09/12 01:40:01;170270.00;0.57;294.73;82750.00;0.28;143.79;;;;;17.20;1.00;;;;;;2284628;60;1476;-85
2022/09/12 01:42:35;180510.00;0.60;312.37;80148.00;0.27;139.29;;;;;16.50;1.00;;;;;;2284668;60;1046;-85
2022/09/12 01:45:10;167167.00;0.56;289.39;81813.00;0.27;142.17;;;;;16.60;1.00;;;;;;2284619;60;1999;-85
2022/09/12 01:47:44;162687.00;0.54;281.67;66598.00;0.22;115.88;;;;;17.20;1.00;;;;;;2284688;60;1012;-85
2022/09/12 01:50:17;64832.00;0.22;112.83;0.00;0.00;0.62;;;;;17.60;1.00;;;;;;2284591;60;1537;-85
2022/09/12 01:52:50;122991936.00;409.97;75372672.00;122945592.00;409.82;75287424.00;;;;;17.20;1.00;;;;;;2284515;60;978;-85
2022/09/12 01:55:21;131206.00;0.44;227.41;0.00;0.00;0.62;;;;;17.20;1.00;;;;;;2284542;60;1602;-85
2022/09/12 01:57:56;0.00;0.00;0.62;0.00;0.00;0.62;;;;;17.80;1.00;;;;;;2284549;60;1011;-85
2022/09/12 02:00:23;218364.00;0.73;377.53;74662.00;0.25;129.82;;;;;18.10;1.00;;;;;;2284531;60;1434;-85
2022/09/12 02:02:58;119499.00;0.40;207.22;245.00;0.00;1.04;;;;;18.40;1.00;;;;;;2284611;60;1171;-85
2022/09/12 02:05:31;175794.00;0.59;304.25;71465.00;0.24;124.29;;;;;18.80;1.00;;;;;;2284498;60;2046;-84
2022/09/12 02:08:05;166689.00;0.56;288.56;75387.00;0.25;131.07;;;;;19.10;1.00;;;;;;2284624;60;1020;-85
2022/09/12 02:10:38;381626.00;1.27;658.22;73183.00;0.24;127.26;;;;;19.40;1.00;;;;;;2284497;60;1368;-84
2022/09/12 02:13:14;453623.00;1.51;782.01;127819.00;0.43;221.57;;;;;19.40;1.00;;;;;;2284511;60;1404;-84
2022/09/12 02:15:47;511596.00;1.71;881.79;72476.00;0.24;126.04;;;;;19.50;1.00;;;;;;2284477;60;1036;-85
2022/09/12 02:18:19;257731.00;0.86;445.25;76056.00;0.25;132.22;;;;;19.50;1.00;;;;;;2284484;60;1548;-85
2022/09/12 02:20:48;208579.00;0.70;360.69;74954.00;0.25;130.32;;;;;19.40;1.00;;;;;;2284509;60;1439;-85
2022/09/12 02:23:20;249385.00;0.83;430.89;77162.00;0.26;134.13;;;;;19.40;1.00;;;;;;2284489;60;1989;-84
2022/09/12 02:25:51;169206.00;0.56;292.90;73500.00;0.25;127.81;;;;;19.30;1.00;;;;;;2284451;60;1037;-84
2022/09/12 02:28:25;167740.00;0.56;290.37;75177.00;0.25;130.71;;;;;19.30;1.00;;;;;;2284423;60;1054;-85
2022/09/12 02:31:01;331286.00;1.10;571.70;72961.00;0.24;126.88;;;;;19.00;1.00;;;;;;2284535;60;1427;-85
2022/09/12 02:33:36;199622.00;0.67;345.27;76445.00;0.25;132.90;;;;;19.20;1.00;;;;;;2284483;60;1500;-85
2022/09/12 02:36:13;228763.00;0.76;395.42;83078.00;0.28;144.35;;;;;18.90;1.00;;;;;;2284472;60;2001;-84
2022/09/12 02:38:45;208081.00;0.69;359.83;71185.00;0.24;123.81;;;;;18.80;1.00;;;;;;2284485;60;1011;-85
2022/09/12 02:41:17;183210.00;0.61;317.02;70315.00;0.23;122.30;;;;;18.70;1.00;;;;;;2284391;60;1425;-85
2022/09/12 02:43:44;275090.00;0.92;475.10;102758.00;0.34;178.33;;;;;18.40;1.00;;;;;;2284468;60;1976;-85
2022/09/12 02:46:18;299863.00;1.00;517.68;75985.00;0.25;132.10;;;;;18.50;1.00;;;;;;2284439;60;1098;-85
2022/09/12 02:48:46;185735.00;0.62;321.37;79358.00;0.26;137.93;;;;;18.70;1.00;;;;;;2284467;60;1141;-85
2022/09/12 02:51:14;365392.00;1.22;630.32;75707.00;0.25;131.62;;;;;18.80;1.00;;;;;;2284448;60;1375;-84
2022/09/12 02:53:42;277241.00;0.92;478.79;73482.00;0.24;127.78;;;;;18.70;1.00;;;;;;2284512;60;1073;-85
2022/09/12 02:56:18;200208.00;0.67;346.28;74821.00;0.25;130.09;;;;;18.60;1.00;;;;;;2284406;60;1460;-85
2022/09/12 02:58:45;213551.00;0.71;369.25;71199.00;0.24;123.83;;;;;18.60;1.00;;;;;;2284465;60;1074;-85
2022/09/12 03:01:26;201884.00;0.67;349.17;74753.00;0.25;129.97;;;;;18.60;1.00;;;;;;2284854;60;1274;-85
2022/09/12 03:04:17;189593.00;0.63;328.01;4066.00;0.01;7.67;;;;;18.90;1.00;;;;;;2285030;60;2002;-84
2022/09/12 03:07:00;7010.00;0.02;12.77;0.00;0.00;0.62;;;;;19.00;1.00;;;;;;2285136;60;1101;-84
2022/09/12 03:09:39;181517.00;0.61;314.10;72870.00;0.24;126.72;;;;;19.20;1.00;;;;;;2285091;60;1017;-85
2022/09/12 03:12:20;314788.00;1.05;543.34;72302.00;0.24;125.74;;;;;19.20;1.00;;;;;;2285040;60;1031;-84
2022/09/12 03:15:12;248020.00;0.83;428.55;71688.00;0.24;124.68;;;;;19.20;1.00;;;;;;2285071;60;1030;-85
2022/09/12 03:17:54;121044.00;0.40;209.88;0.00;0.00;0.62;;;;;19.10;1.00;;;;;;2285076;60;1176;-84
2022/09/12 03:20:43;328402.00;1.09;566.74;9192.00;0.03;16.55;;;;;19.10;1.00;;;;;;2285025;60;1360;-85
2022/09/12 03:23:23;93495.00;0.31;162.34;0.00;0.00;0.62;;;;;19.10;1.00;;;;;;2284993;60;1026;-85
2022/09/12 03:25:56;112033.00;0.37;194.34;0.00;0.00;0.62;;;;;19.30;1.00;;;;;;2285036;60;2002;-85
2022/09/12 03:28:23;276697.00;0.92;477.86;0.00;0.00;0.62;;;;;19.30;1.00;;;;;;2284989;60;2025;-85
2022/09/12 03:30:53;777244.00;2.59;1341.47;13016.00;0.04;23.17;;;;;19.10;1.00;;;;;;2284950;60;1400;-85
2022/09/12 03:33:21;241143.00;0.80;416.72;0.00;0.00;0.62;;;;;19.10;1.00;;;;;;2285020;60;1070;-85
2022/09/12 03:35:51;294934.00;0.98;509.21;0.00;0.00;0.62;;;;;19.00;1.00;;;;;;2284979;60;1015;-84
2022/09/12 03:38:19;423331.00;1.41;729.92;0.00;0.00;0.62;;;;;19.00;1.00;;;;;;2285047;60;982;-85
2022/09/12 03:40:46;411976.00;1.37;710.39;80502.00;0.27;139.90;;;;;18.70;1.00;;;;;;2284991;60;1358;-84
2022/09/12 03:43:13;399111.00;1.33;688.28;81449.00;0.27;141.54;;;;;18.30;1.00;;;;;;2284934;60;995;-87
2022/09/12 03:45:40;272757.00;0.91;471.08;4367.00;0.01;8.19;;;;;18.00;1.00;;;;;;2284983;60;2005;-84
2022/09/12 03:48:07;225088.00;0.75;389.10;0.00;0.00;0.62;;;;;18.20;1.00;;;;;;2285007;60;1030;-85
2022/09/12 03:50:34;553339.00;1.84;953.72;22240.00;0.07;39.15;;;;;18.30;1.00;;;;;;2284996;60;1736;-84
2022/09/12 03:53:03;411047.00;1.37;708.80;77448.00;0.26;134.63;;;;;18.50;1.00;;;;;;2284980;60;1033;-84
2022/09/12 03:55:30;357883.00;1.19;617.41;71186.00;0.24;123.81;;;;;18.40;1.00;;;;;;2284981;60;1120;-85
2022/09/12 03:57:57;363133.00;1.21;626.43;75301.00;0.25;130.92;;;;;18.30;1.00;;;;;;2285038;60;919;-85
2022/09/12 04:00:24;397762.00;1.33;685.96;81924.00;0.27;142.36;;;;;18.50;1.00;;;;;;2284944;60;1402;-85
2022/09/12 04:02:55;439155.00;1.46;757.13;75450.00;0.25;131.18;;;;;18.70;1.00;;;;;;2284963;60;1097;-86
2022/09/12 04:05:22;284048.00;0.95;490.50;0.00;0.00;0.62;;;;;18.90;1.00;;;;;;2284965;60;1980;-84
2022/09/12 04:07:49;494699.00;1.65;852.70;71367.00;0.24;124.12;;;;;18.80;1.00;;;;;;2284871;60;1626;-87
2022/09/12 04:10:18;596516.00;1.99;1028.20;77807.00;0.26;135.25;;;;;18.40;1.00;;;;;;2284848;60;1765;-85
2022/09/12 04:12:45;763798.00;2.55;1318.06;67153.00;0.22;116.84;;;;;18.10;1.00;;;;;;2284888;60;1684;-85
2022/09/12 04:15:11;628186.00;2.09;1082.91;81394.00;0.27;141.45;;;;;17.90;1.00;;;;;;2284954;60;1096;-85
2022/09/12 04:17:38;670418.00;2.23;1155.98;78295.00;0.26;136.09;;;;;17.90;1.00;;;;;;2284949;60;991;-84
2022/09/12 04:20:06;363654.00;1.21;627.33;78182.00;0.26;135.90;;;;;17.80;1.00;;;;;;2284810;60;1265;-85
2022/09/12 04:22:33;339647.00;1.13;586.07;74862.00;0.25;130.16;;;;;17.70;1.00;;;;;;2284890;60;1038;-84
2022/09/12 04:25:00;494618.00;1.65;852.56;70645.00;0.24;122.87;;;;;17.80;1.00;;;;;;2284826;60;1996;-84
2022/09/12 04:27:28;593637.00;1.98;1023.23;55451.00;0.18;96.61;;;;;18.00;1.00;;;;;;2284788;60;996;-86
2022/09/12 04:29:56;552111.00;1.84;951.60;49277.00;0.16;85.94;;;;;18.10;1.00;;;;;;2284804;60;1261;-85
2022/09/12 04:32:23;710108.00;2.37;1224.77;70101.00;0.23;121.93;;;;;18.10;1.00;;;;;;2284858;60;1055;-83
2022/09/12 04:34:51;450791.00;1.50;777.14;67217.00;0.22;116.95;;;;;18.00;1.00;;;;;;2284804;60;1004;-85
2022/09/12 04:37:18;218331.00;0.73;377.47;11692.00;0.04;20.88;;;;;17.80;1.00;;;;;;2284828;60;1547;-85
2022/09/12 04:39:47;272709.00;0.91;471.00;0.00;0.00;0.62;;;;;18.00;1.00;;;;;;2284754;60;1370;-84
2022/09/12 04:42:14;145858.00;0.49;252.67;0.00;0.00;0.62;;;;;18.20;1.00;;;;;;2284818;60;1717;-84
2022/09/12 04:44:42;219882.00;0.73;380.14;0.00;0.00;0.62;;;;;18.10;1.00;;;;;;2284856;60;1907;-85
2022/09/12 04:47:09;208725.00;0.70;360.94;0.00;0.00;0.62;;;;;17.90;1.00;;;;;;2284850;60;1006;-84
2022/09/12 04:49:36;134396.00;0.45;232.91;0.00;0.00;0.62;;;;;18.00;1.00;;;;;;2284811;60;942;-85
2022/09/12 04:52:03;152691.00;0.51;264.45;0.00;0.00;0.62;;;;;18.20;1.00;;;;;;2284814;60;1454;-85
2022/09/12 04:54:30;222535.00;0.74;384.71;18752.00;0.06;33.11;;;;;18.20;1.00;;;;;;2284824;60;1077;-85
2022/09/12 04:56:56;351440.00;1.17;606.34;0.00;0.00;0.62;;;;;18.30;1.00;;;;;;2284767;60;1987;-85
2022/09/12 04:59:24;310765.00;1.04;536.42;0.00;0.00;0.62;;;;;18.40;1.00;;;;;;2284827;60;1081;-84
2022/09/12 05:01:53;189376.00;0.63;327.63;0.00;0.00;0.62;;;;;18.50;1.00;;;;;;2284758;60;1418;-85
2022/09/12 05:04:20;341617.00;1.14;589.45;0.00;0.00;0.62;;;;;18.70;1.00;;;;;;2284711;60;1988;-85
2022/09/12 05:06:47;216549.00;0.72;374.41;0.00;0.00;0.62;;;;;18.90;1.00;;;;;;2284752;60;974;-85
2022/09/12 05:09:14;140555.00;0.47;243.53;0.00;0.00;0.62;;;;;18.50;1.00;;;;;;2284757;60;1074;-84
2022/09/12 05:11:44;338326.00;1.13;583.80;0.00;0.00;0.62;;;;;18.20;1.00;;;;;;2284744;60;1283;-84
2022/09/12 05:14:11;155015.00;0.52;268.45;0.00;0.00;0.62;;;;;18.00;1.00;;;;;;2284613;60;1066;-85
2022/09/12 05:16:40;314350.00;1.05;542.59;0.00;0.00;0.62;;;;;17.30;1.00;;;;;;2284748;60;1015;-83
2022/09/12 05:19:10;383976.00;1.28;662.26;32256.00;0.11;56.49;;;;;17.50;1.00;;;;;;2284660;60;1050;-85
2022/09/12 05:21:38;254229.00;0.85;439.22;0.00;0.00;0.62;;;;;17.00;1.00;;;;;;2284683;60;1379;-86
2022/09/12 05:24:05;208393.00;0.69;360.37;0.00;0.00;0.62;;;;;16.70;1.00;;;;;;2284508;60;1994;-85
2022/09/12 05:26:32;434435.00;1.45;749.01;0.00;0.00;0.62;;;;;16.60;1.00;;;;;;2284727;60;1639;-84
2022/09/12 05:28:59;137297.00;0.46;237.91;0.00;0.00;0.62;;;;;16.70;1.30;;;;;;2284516;60;1104;-86
2022/09/12 05:31:27;212234.00;0.71;366.98;0.00;0.00;0.62;;;;;16.90;1.00;;;;;;2284572;60;1320;-85
2022/09/12 05:33:56;132397.00;0.44;229.46;0.00;0.00;0.62;;;;;16.60;1.00;;;;;;2284599;60;1062;-86
2022/09/12 05:36:26;227648.00;0.76;393.50;0.00;0.00;0.62;;;;;16.80;1.00;;;;;;2284629;60;1211;-86
2022/09/12 05:38:53;674802.00;2.25;1163.57;0.00;0.00;0.62;;;;;16.70;1.00;;;;;;2284546;60;1074;-85
2022/09/12 05:41:23;3250666.00;10.84;6588.37;1065169.00;3.55;1848.24;;;;;16.70;1.00;;;;;;2284499;60;1366;-85
2022/09/12 05:43:53;1737176.00;5.79;3097.89;436895.00;1.46;753.24;;;;;16.60;1.00;;;;;;2284588;60;1044;-85
2022/09/12 05:46:24;94032.00;0.31;163.27;0.00;0.00;0.62;;;;;16.40;1.00;;;;;;2284370;60;2018;-87
2022/09/12 05:48:51;118003.00;0.39;204.64;0.00;0.00;0.62;;;;;16.30;1.00;;;;;;2284594;60;1125;-88
2022/09/12 05:51:20;66787.00;0.22;116.21;0.00;0.00;0.62;;;;;15.90;1.00;;;;;;2284372;60;1302;-87
2022/09/12 05:53:51;169071.00;0.56;292.67;0.00;0.00;0.62;;;;;15.60;2.90;;;;;;2284479;60;1070;-87
2022/09/12 05:56:21;138100.00;0.46;239.30;0.00;0.00;0.62;;;;;15.60;2.90;;;;;;2284492;60;1039;-87
2022/09/12 05:58:55;212928.00;0.71;368.17;55106.00;0.18;96.02;;;;;16.00;2.80;;;;;;2284574;60;1159;-87
2022/09/12 06:01:22;6923.00;0.02;12.62;0.00;0.00;0.62;;;;;16.30;1.60;;;;;;2284481;60;1458;-87
2022/09/12 06:03:51;0.00;0.00;0.62;0.00;0.00;0.62;;;;;16.20;1.00;;;;;;2284482;60;1147;-87
2022/09/12 06:06:20;319239.00;1.06;550.99;86133.00;0.29;149.63;;;;;16.20;1.00;;;;;;2284473;60;2002;-86
2022/09/12 06:08:50;68764.00;0.23;119.62;0.00;0.00;0.62;;;;;16.30;1.00;;;;;;2284432;60;1039;-88
2022/09/12 06:11:20;0.00;0.00;0.62;0.00;0.00;0.62;;;;;16.60;1.00;;;;;;2284451;60;1412;-86
2022/09/12 06:13:47;0.00;0.00;0.62;0.00;0.00;0.62;;;;;16.70;1.00;;;;;;2284424;60;1020;-87
2022/09/12 06:16:16;0.00;0.00;0.62;0.00;0.00;0.62;;;;;16.50;1.00;;;;;;2284512;60;1105;-87
2022/09/12 06:18:47;34514.00;0.12;60.40;0.00;0.00;0.62;;;;;16.40;1.00;;;;;;2284479;60;1240;-86
2022/09/12 06:21:14;68973.00;0.23;119.99;0.00;0.00;0.62;;;;;16.50;1.00;;;;;;2284327;60;1349;-87
2022/09/12 06:23:41;30071.00;0.10;52.71;0.00;0.00;0.62;;;;;16.50;1.00;;;;;;2284423;60;1040;-85
2022/09/12 06:26:11;12415.00;0.04;22.13;0.00;0.00;0.62;;;;;16.60;1.70;;;;;;2284405;60;1915;-87
2022/09/12 06:28:39;0.00;0.00;0.62;0.00;0.00;0.62;;;;;17.00;1.00;;;;;;2284325;60;1121;-85
2022/09/12 06:31:10;167407.00;0.56;289.80;10023.00;0.03;17.99;;;;;17.40;1.40;;;;;;2284451;60;2132;-86
2022/09/12 06:33:39;326067.00;1.09;562.73;45476.00;0.15;79.36;;;;;17.90;1.00;;;;;;2284463;60;1509;-86
2022/09/12 06:36:08;287643.00;0.96;496.68;15869.00;0.05;28.12;;;;;18.30;1.00;;;;;;2284262;60;1444;-86
2022/09/12 06:38:35;328410.00;1.09;566.75;0.00;0.00;0.62;;;;;18.60;1.00;;;;;;2284474;60;1074;-85
2022/09/12 06:41:06;24320.00;0.08;42.75;0.00;0.00;0.62;;;;;18.40;1.00;;;;;;2284445;60;1279;-86
2022/09/12 06:43:35;155296.00;0.52;268.93;0.00;0.00;0.62;;;;;18.60;1.00;;;;;;2284370;60;1652;-85
2022/09/12 06:46:02;150427.00;0.50;260.54;0.00;0.00;0.62;;;;;19.00;1.00;;;;;;2284442;60;1919;-85
2022/09/12 06:48:29;474007.00;1.58;817.08;5341.00;0.02;9.88;;;;;19.40;1.00;;;;;;2284403;60;1601;-86
2022/09/12 06:50:57;684634.00;2.28;1180.60;65717.00;0.22;114.36;;;;;19.30;1.00;;;;;;2284383;60;1419;-86
2022/09/12 06:53:25;733330.00;2.44;1265.09;40618.00;0.14;70.96;;;;;19.50;1.00;;;;;;2284481;60;1008;-85
2022/09/12 06:55:56;818493.00;2.73;1413.39;95719.00;0.32;166.18;;;;;19.60;1.00;;;;;;2284422;60;1069;-86
2022/09/12 06:58:23;781975.00;2.61;1349.71;41698.00;0.14;72.83;;;;;19.50;1.00;;;;;;2284409;60;1081;-87
2022/09/12 07:00:52;864851.00;2.88;1494.47;44981.00;0.15;78.51;;;;;19.40;1.00;;;;;;2284265;60;1631;-86
2022/09/12 07:03:19;826808.00;2.76;1427.92;61949.00;0.21;107.85;;;;;19.70;1.00;;;;;;2284323;60;1312;-85
2022/09/12 07:05:46;735025.00;2.45;1268.03;64220.00;0.21;111.77;;;;;19.60;1.00;;;;;;2284397;60;2001;-85
2022/09/12 07:08:13;479754.00;1.60;826.97;17324.00;0.06;30.64;;;;;19.00;1.00;;;;;;2284360;60;969;-84
2022/09/12 07:10:40;500324.00;1.67;862.38;68920.00;0.23;119.89;;;;;19.60;1.00;;;;;;2284348;60;2276;-85
2022/09/12 07:13:06;472787.00;1.58;814.99;0.00;0.00;0.62;;;;;19.70;1.00;;;;;;2284314;60;938;-84
2022/09/12 07:15:35;108951.00;0.36;189.02;0.00;0.00;0.62;;;;;19.80;1.00;;;;;;2284395;60;928;-86
2022/09/12 07:18:03;337570.00;1.13;582.50;0.00;0.00;0.62;;;;;19.60;1.00;;;;;;2284393;60;902;-84
2022/09/12 07:20:32;554456.00;1.85;955.64;0.00;0.00;0.62;;;;;19.50;1.00;;;;;;2284364;60;1381;-85
2022/09/12 07:22:59;454412.00;1.51;783.37;0.00;0.00;0.62;;;;;19.80;1.00;;;;;;2284361;60;1058;-84
2022/09/12 07:25:26;472777.00;1.58;814.97;16779.00;0.06;29.69;;;;;19.70;1.00;;;;;;2284291;60;1998;-85
2022/09/12 07:27:54;434398.00;1.45;748.95;3605.00;0.01;6.87;;;;;19.70;1.00;;;;;;2284338;60;1582;-86
2022/09/12 07:30:22;395684.00;1.32;682.39;2479.00;0.01;4.92;;;;;20.00;1.00;;;;;;2284307;60;1423;-84
2022/09/12 07:32:52;389949.00;1.30;672.53;0.00;0.00;0.62;;;;;19.90;1.00;;;;;;2284341;60;1601;-85
2022/09/12 07:35:20;540247.00;1.80;931.15;2647.00;0.01;5.21;;;;;20.50;1.00;;;;;;2284325;60;935;-85
2022/09/12 07:37:47;815255.00;2.72;1407.74;71276.00;0.24;123.97;;;;;21.10;1.00;;;;;;2284325;60;1159;-85
2022/09/12 07:40:14;640810.00;2.14;1104.74;5613.00;0.02;10.35;;;;;21.30;1.00;;;;;;2284340;60;1361;-85
2022/09/12 07:42:41;844490.00;2.81;1458.83;87561.00;0.29;152.10;;;;;20.60;1.00;;;;;;2284341;60;1115;-84
2022/09/12 07:45:09;572352.00;1.91;986.50;0.00;0.00;0.62;;;;;20.40;1.00;;;;;;2284290;60;1913;-85
2022/09/12 07:47:36;276600.00;0.92;477.69;16483.00;0.05;29.18;;;;;21.10;1.00;;;;;;2284926;60;1090;-84
2022/09/12 07:50:03;598249.00;1.99;1031.20;58632.00;0.20;102.11;;;;;20.90;1.00;;;;;;2285003;60;1281;-86
2022/09/12 07:52:31;518490.00;1.73;893.66;0.00;0.00;0.62;;;;;21.30;1.00;;;;;;2285025;60;1154;-85
2022/09/12 07:54:58;350792.00;1.17;605.22;0.00;0.00;0.62;;;;;21.70;1.00;;;;;;2285040;60;1093;-86
2022/09/12 07:57:25;616347.00;2.05;1062.45;24454.00;0.08;42.98;;;;;21.60;1.00;;;;;;2284934;60;852;-86
2022/09/12 07:59:52;523046.00;1.74;901.51;15369.00;0.05;27.25;;;;;21.20;1.00;;;;;;2284974;60;1431;-86
2022/09/12 08:02:19;824379.00;2.75;1423.67;73030.00;0.24;127.00;;;;;22.20;1.00;;;;;;2284985;60;1046;-86
2022/09/12 08:04:47;727443.00;2.42;1254.86;25156.00;0.08;44.20;;;;;23.00;1.00;;;;;;2284904;60;1463;-87
2022/09/12 08:07:14;621084.00;2.07;1070.64;14044.00;0.05;24.95;;;;;23.40;1.00;;;;;;2284886;60;2020;-84
2022/09/12 08:09:42;1057559.00;3.53;1834.69;86076.00;0.29;149.53;;;;;23.50;1.00;;;;;;2284939;60;2278;-84
2022/09/12 08:12:09;849499.00;2.83;1467.59;86071.00;0.29;149.52;;;;;23.90;1.00;;;;;;2284993;60;1088;-84
2022/09/12 08:14:36;772044.00;2.57;1332.41;118360.00;0.39;205.25;;;;;24.70;1.00;;;;;;2284993;60;1073;-85
2022/09/12 08:17:03;676167.00;2.25;1165.93;121506.00;0.41;210.68;;;;;24.70;1.00;;;;;;2284911;60;1047;-86
2022/09/12 08:19:30;875455.00;2.92;1513.05;92224.00;0.31;160.15;;;;;25.10;1.00;;;;;;2284977;60;1078;-85
2022/09/12 08:21:57;566758.00;1.89;976.85;105074.00;0.35;182.33;;;;;24.70;1.00;;;;;;2284911;60;1383;-85
2022/09/12 08:24:24;646255.00;2.15;1114.16;60904.00;0.20;106.04;;;;;24.60;1.00;;;;;;2284888;60;1122;-86
2022/09/12 08:26:53;730762.00;2.44;1260.63;86375.00;0.29;150.05;;;;;25.30;1.00;;;;;;2284858;60;1918;-86
2022/09/12 08:29:20;838633.00;2.80;1448.58;59505.00;0.20;103.62;;;;;25.90;1.00;;;;;;2284820;60;1063;-86
2022/09/12 08:31:47;626756.00;2.09;1080.44;72378.00;0.24;125.87;;;;;25.90;1.00;;;;;;2284922;60;1375;-85
2022/09/12 08:34:15;677790.00;2.26;1168.74;64391.00;0.21;112.07;;;;;25.90;1.00;;;;;;2284917;60;1063;-85
2022/09/12 08:36:43;595529.00;1.99;1026.50;104763.00;0.35;181.79;;;;;24.70;1.00;;;;;;2284846;60;936;-85
2022/09/12 08:39:13;577517.00;1.93;995.41;94858.00;0.32;164.70;;;;;24.80;1.00;;;;;;2284864;60;1086;-85
2022/09/12 08:41:43;687663.00;2.29;1185.85;73228.00;0.24;127.34;;;;;24.30;1.00;;;;;;2284812;60;1412;-86
2022/09/12 08:44:31;473466.00;1.58;816.15;30389.00;0.10;53.26;;;;;24.20;1.00;;;;;;2284915;60;1043;-85
2022/09/12 08:47:24;1074474.00;3.58;1864.83;32217.00;0.11;56.42;;;;;23.60;1.00;;;;;;2284823;60;1997;-86
2022/09/12 08:50:01;146121.00;0.49;253.12;0.00;0.00;0.62;;;;;23.80;1.00;;;;;;2284742;60;1455;-86
2022/09/12 08:52:36;40846.00;0.14;71.35;0.00;0.00;0.62;;;;;24.00;1.00;;;;;;2284917;60;1026;-86
2022/09/12 08:55:05;0.00;0.00;0.62;0.00;0.00;0.62;;;;;23.70;1.00;;;;;;2284832;60;1058;-86
2022/09/12 08:57:33;275691.00;0.92;476.13;15270.00;0.05;27.08;;;;;23.90;1.00;;;;;;2284673;60;1235;-85
2022/09/12 09:00:07;38257.00;0.13;66.87;0.00;0.00;0.62;;;;;23.60;1.00;;;;;;2284698;60;1395;-86
2022/09/12 09:03:10;516870.00;1.72;890.87;53904.00;0.18;93.94;;;;;23.80;1.00;;;;;;2284760;60;1498;-85
2022/09/12 09:05:50;126994.00;0.42;220.15;8366.00;0.03;15.12;;;;;23.60;1.00;;;;;;2284702;60;2001;-85
2022/09/12 09:08:40;68656.00;0.23;119.44;0.00;0.00;0.62;;;;;23.70;1.00;;;;;;2284695;60;1208;-86
2022/09/12 09:11:25;35095.00;0.12;61.40;0.00;0.00;0.62;;;;;23.80;1.00;;;;;;2284789;60;1445;-85
2022/09/12 09:16:54;24505.00;0.08;43.07;0.00;0.00;0.62;;;;;23.70;1.00;;;;;;2284816;60;699;-88
2022/09/12 09:19:26;0.00;0.00;0.62;0.00;0.00;0.62;;;;;23.70;1.00;;;;;;2284649;60;1091;-83
2022/09/12 09:21:58;32302.00;0.11;56.57;0.00;0.00;0.62;;;;;23.90;1.00;;;;;;2284670;60;1489;-84
2022/09/12 09:24:32;105113.00;0.35;182.40;10967.00;0.04;19.62;;;;;23.90;1.00;;;;;;2284701;60;974;-84
2022/09/12 09:27:04;0.00;0.00;0.62;0.00;0.00;0.62;;;;;23.80;1.00;;;;;;2284660;60;1985;-86
2022/09/12 09:29:36;6326.00;0.02;11.58;0.00;0.00;0.62;;;;;23.90;1.00;;;;;;2284677;60;1108;-85
2022/09/12 09:32:17;37861.00;0.13;66.19;0.00;0.00;0.62;;;;;24.30;1.00;;;;;;2284647;60;1545;-85
2022/09/12 09:34:44;0.00;0.00;0.62;0.00;0.00;0.62;;;;;24.30;1.00;;;;;;2284802;60;1129;-85
2022/09/12 09:37:19;65398.00;0.22;113.81;0.00;0.00;0.62;;;;;24.00;1.00;;;;;;2284591;60;1085;-86
2022/09/12 09:39:59;0.00;0.00;0.62;0.00;0.00;0.62;;;;;24.30;1.00;;;;;;2284651;60;1386;-86
2022/09/12 09:42:40;15791.00;0.05;27.98;0.00;0.00;0.62;;;;;24.10;1.00;;;;;;2284676;60;1161;-87
2022/09/12 09:45:15;151808.00;0.51;262.92;0.00;0.00;0.62;;;;;24.10;1.00;;;;;;2284704;60;1224;-85
2022/09/12 09:47:45;74514.00;0.25;129.56;0.00;0.00;0.62;;;;;24.10;1.00;;;;;;2284649;60;1989;-87
2022/09/12 09:50:16;172807.00;0.58;299.10;0.00;0.00;0.62;;;;;24.30;1.00;;;;;;2284681;60;1392;-86
2022/09/12 09:52:43;153834.00;0.51;266.41;0.00;0.00;0.62;;;;;23.60;1.00;;;;;;2284592;60;2203;-87
2022/09/12 09:55:17;31998.00;0.11;56.04;0.00;0.00;0.62;;;;;23.70;1.00;;;;;;2284548;60;1030;-86
2022/09/12 09:57:46;195637.00;0.65;338.41;0.00;0.00;0.62;;;;;24.10;1.00;;;;;;2284631;60;1028;-85
2022/09/12 10:00:29;44918.00;0.15;78.40;0.00;0.00;0.62;;;;;24.60;1.00;;;;;;2284527;60;1365;-85
2022/09/12 10:03:17;89178.00;0.30;154.89;24143.00;0.08;42.44;;;;;24.70;1.00;;;;;;2284570;60;1435;-86
2022/09/12 10:05:47;153772.00;0.51;266.31;0.00;0.00;0.62;;;;;24.70;1.00;;;;;;2284184;60;1915;-85
2022/09/12 10:08:22;325203.00;1.08;561.24;0.00;0.00;0.62;;;;;24.70;1.00;;;;;;2284584;60;1119;-84